createdAt,value
2018-06-20T00:02:07.620Z,18.20
2018-06-20T00:04:36.491Z,18.20
2018-06-20T00:09:33.982Z,17.90
2018-06-20T00:12:02.887Z,18.00
2018-06-20T00:14:31.790Z,18.00
2018-06-20T00:17:00.694Z,18.00
2018-06-20T00:19:29.654Z,18.00
2018-06-20T00:21:58.581Z,17.90
2018-06-20T00:24:27.478Z,17.90
2018-06-20T00:26:56.370Z,17.70
2018-06-20T00:29:25.330Z,17.70
2018-06-20T00:31:54.217Z,17.70
2018-06-20T00:34:23.098Z,17.70
2018-06-20T00:36:52.003Z,17.50
2018-06-20T00:39:20.862Z,17.40
2018-06-20T00:41:49.746Z,17.40
2018-06-20T00:44:18.618Z,17.40
2018-06-20T00:46:47.530Z,17.50
2018-06-20T00:49:16.406Z,17.40
2018-06-20T00:51:45.311Z,17.40
2018-06-20T00:54:14.208Z,17.30
2018-06-20T00:56:43.367Z,17.40
2018-06-20T00:59:12.519Z,17.40
2018-06-20T01:01:41.651Z,17.40
2018-06-20T01:04:10.746Z,17.30
2018-06-20T01:06:39.897Z,17.30
2018-06-20T01:09:11.020Z,17.30
2018-06-20T01:11:40.225Z,17.30
2018-06-20T01:14:09.310Z,17.10
2018-06-20T01:16:38.475Z,17.10
2018-06-20T01:19:07.635Z,17.00
2018-06-20T01:21:36.765Z,16.90
2018-06-20T01:24:05.879Z,16.80
2018-06-20T01:26:35.003Z,16.80
2018-06-20T01:29:04.123Z,16.90
2018-06-20T01:31:33.201Z,17.00
2018-06-20T01:34:02.312Z,17.00
2018-06-20T01:36:31.386Z,16.90
2018-06-20T01:39:00.504Z,16.90
2018-06-20T01:41:29.600Z,16.90
2018-06-20T01:43:58.698Z,16.80
2018-06-20T01:46:32.301Z,16.70
2018-06-20T01:49:01.400Z,16.80
2018-06-20T01:51:30.500Z,16.80
2018-06-20T01:53:59.623Z,16.80
2018-06-20T01:56:28.738Z,16.80
2018-06-20T01:58:57.831Z,16.80
2018-06-20T02:01:26.947Z,16.80
2018-06-20T02:03:56.016Z,16.80
2018-06-20T02:06:25.296Z,16.70
2018-06-20T02:08:58.327Z,16.70
2018-06-20T02:11:28.734Z,16.70
2018-06-20T02:13:57.843Z,16.70
2018-06-20T02:16:26.949Z,16.70
2018-06-20T02:21:25.094Z,16.80
2018-06-20T02:23:54.187Z,16.80
2018-06-20T02:26:23.275Z,16.80
2018-06-20T02:28:52.367Z,16.80
2018-06-20T02:31:21.475Z,16.70
2018-06-20T02:33:50.580Z,16.70
2018-06-20T02:36:24.998Z,16.70
2018-06-20T02:38:54.099Z,16.80
2018-06-20T02:41:23.483Z,16.80
2018-06-20T02:43:52.587Z,16.80
2018-06-20T02:46:21.663Z,16.90
2018-06-20T02:48:50.822Z,16.90
2018-06-20T02:51:19.960Z,17.00
2018-06-20T02:53:49.063Z,17.00
2018-06-20T02:56:18.193Z,17.10
2018-06-20T02:58:47.346Z,17.00
2018-06-20T03:01:16.459Z,16.90
2018-06-20T03:03:45.603Z,16.90
2018-06-20T03:06:14.739Z,16.90
2018-06-20T03:08:43.987Z,17.00
2018-06-20T03:11:13.144Z,16.90
2018-06-20T03:13:42.380Z,16.90
2018-06-20T03:16:11.525Z,16.90
2018-06-20T03:18:40.620Z,16.80
2018-06-20T03:21:09.826Z,16.80
2018-06-20T03:23:38.958Z,16.70
2018-06-20T03:26:08.066Z,16.70
2018-06-20T03:28:37.270Z,16.80
2018-06-20T03:31:06.684Z,16.70
2018-06-20T03:33:35.805Z,16.70
2018-06-20T03:36:04.883Z,16.80
2018-06-20T03:38:34.370Z,16.90
2018-06-20T03:41:03.473Z,16.90
2018-06-20T03:43:32.570Z,16.80
2018-06-20T03:46:01.851Z,16.80
2018-06-20T03:48:31.038Z,16.90
2018-06-20T03:51:00.128Z,16.90
2018-06-20T03:53:29.236Z,17.00
2018-06-20T03:55:58.346Z,17.10
2018-06-20T03:58:27.436Z,17.00
2018-06-20T04:00:56.538Z,17.00
2018-06-20T04:03:25.703Z,16.90
2018-06-20T04:05:54.790Z,16.90
2018-06-20T04:08:24.134Z,16.90
2018-06-20T04:10:53.324Z,16.90
2018-06-20T04:13:22.366Z,16.90
2018-06-20T04:15:51.535Z,16.90
2018-06-20T04:18:20.669Z,17.00
2018-06-20T04:20:49.806Z,17.00
2018-06-20T04:23:18.922Z,17.00
2018-06-20T04:25:48.015Z,17.10
2018-06-20T04:28:17.247Z,16.90
2018-06-20T04:30:46.340Z,16.90
2018-06-20T04:33:15.471Z,17.00
2018-06-20T04:35:44.583Z,17.10
2018-06-20T04:38:13.944Z,17.20
2018-06-20T04:40:43.056Z,17.30
2018-06-20T04:43:12.302Z,17.30
2018-06-20T04:45:41.403Z,17.40
2018-06-20T04:48:10.604Z,17.50
2018-06-20T04:50:39.735Z,17.50
2018-06-20T04:53:09.210Z,17.40
2018-06-20T04:55:38.553Z,17.50
2018-06-20T04:58:07.627Z,17.60
2018-06-20T05:00:36.749Z,17.70
2018-06-20T05:03:05.859Z,17.90
2018-06-20T05:05:35.084Z,18.00
2018-06-20T05:08:04.207Z,18.00
2018-06-20T05:10:33.531Z,18.10
2018-06-20T05:13:02.695Z,18.10
2018-06-20T05:15:31.799Z,18.30
2018-06-20T05:18:01.775Z,18.30
2018-06-20T05:20:31.004Z,18.50
2018-06-20T05:23:00.178Z,18.60
2018-06-20T05:25:29.410Z,18.60
2018-06-20T05:27:58.597Z,18.70
2018-06-20T05:30:27.691Z,18.70
2018-06-20T05:32:56.829Z,18.80
2018-06-20T05:35:25.879Z,19.00
2018-06-20T05:37:55.070Z,19.20
2018-06-20T05:40:24.158Z,19.40
2018-06-20T05:42:53.246Z,19.50
2018-06-20T05:45:22.395Z,19.60
2018-06-20T05:47:51.479Z,19.70
2018-06-20T05:50:20.587Z,19.80
2018-06-20T05:52:49.671Z,19.80
2018-06-20T05:55:18.791Z,19.70
2018-06-20T05:57:47.892Z,19.60
2018-06-20T06:00:16.991Z,19.60
2018-06-20T06:02:46.082Z,19.40
2018-06-20T06:05:15.253Z,19.50
2018-06-20T06:07:44.335Z,19.60
2018-06-20T06:10:18.069Z,19.70
2018-06-20T06:12:48.199Z,19.70
2018-06-20T06:15:17.288Z,19.90
2018-06-20T06:17:46.411Z,20.10
2018-06-20T06:20:15.563Z,20.20
2018-06-20T06:22:44.679Z,20.20
2018-06-20T06:25:13.811Z,20.50
2018-06-20T06:27:42.892Z,20.70
2018-06-20T06:30:12.035Z,20.90
2018-06-20T06:32:41.235Z,20.90
2018-06-20T06:37:39.035Z,21.20
2018-06-20T06:40:08.154Z,21.50
2018-06-20T06:42:37.226Z,21.40
2018-06-20T06:45:06.431Z,21.50
2018-06-20T06:47:35.531Z,21.60
2018-06-20T06:50:04.689Z,21.70
2018-06-20T06:52:33.783Z,21.90
2018-06-20T06:55:02.874Z,22.00
2018-06-20T06:57:32.232Z,22.10
2018-06-20T07:00:01.472Z,22.10
2018-06-20T07:02:30.818Z,22.20
2018-06-20T07:04:59.890Z,22.40
2018-06-20T07:07:29.139Z,22.60
2018-06-20T07:09:58.244Z,22.70
2018-06-20T07:12:27.407Z,22.80
2018-06-20T07:14:56.572Z,22.70
2018-06-20T07:17:25.640Z,22.80
2018-06-20T07:19:54.739Z,22.90
2018-06-20T07:22:23.815Z,23.10
2018-06-20T07:24:52.898Z,23.20
2018-06-20T07:27:21.988Z,23.30
2018-06-20T07:29:51.101Z,23.30
2018-06-20T07:32:20.992Z,23.40
2018-06-20T07:34:50.465Z,23.40
2018-06-20T07:37:19.660Z,23.30
2018-06-20T07:39:48.743Z,23.40
2018-06-20T07:42:17.851Z,23.50
2018-06-20T07:44:46.934Z,23.70
2018-06-20T07:47:16.099Z,23.80
2018-06-20T07:49:45.192Z,23.90
2018-06-20T07:52:14.546Z,24.00
2018-06-20T07:54:43.654Z,24.10
2018-06-20T07:57:12.941Z,24.20
2018-06-20T07:59:47.476Z,24.30
2018-06-20T08:02:33.238Z,24.40
2018-06-20T08:05:07.720Z,24.40
2018-06-20T08:07:42.279Z,24.50
2018-06-20T08:10:16.621Z,24.70
2018-06-20T08:12:50.911Z,24.80
2018-06-20T08:15:25.240Z,24.80
2018-06-20T08:17:59.778Z,24.80
2018-06-20T08:20:28.935Z,25.00
2018-06-20T08:22:58.021Z,25.00
2018-06-20T08:25:27.112Z,25.00
2018-06-20T08:27:56.183Z,25.10
2018-06-20T08:30:25.283Z,25.20
2018-06-20T08:32:54.352Z,25.30
2018-06-20T08:35:23.471Z,25.30
2018-06-20T08:37:52.570Z,25.30
2018-06-20T08:40:21.675Z,25.40
2018-06-20T08:42:50.774Z,25.30
2018-06-20T08:45:19.872Z,25.40
2018-06-20T08:47:49.067Z,25.60
2018-06-20T08:50:18.154Z,25.60
2018-06-20T08:52:47.277Z,25.70
2018-06-20T08:55:16.362Z,25.80
2018-06-20T08:57:45.816Z,26.10
2018-06-20T09:00:19.095Z,26.10
2018-06-20T09:05:22.124Z,26.20
2018-06-20T09:07:56.701Z,26.30
2018-06-20T09:10:31.055Z,26.50
2018-06-20T09:13:05.362Z,26.60
2018-06-20T09:15:39.735Z,27.00
2018-06-20T09:18:14.151Z,27.00
2018-06-20T09:20:43.311Z,27.00
2018-06-20T09:23:12.658Z,27.00
2018-06-20T09:25:41.900Z,27.30
2018-06-20T09:28:11.028Z,27.40
2018-06-20T09:33:08.866Z,27.60
2018-06-20T09:35:38.026Z,27.60
2018-06-20T09:38:07.099Z,27.40
2018-06-20T09:40:36.194Z,27.60
2018-06-20T09:43:05.395Z,28.00
2018-06-20T09:45:34.490Z,28.30
2018-06-20T09:48:03.576Z,28.20
2018-06-20T09:50:37.991Z,28.20
2018-06-20T09:53:07.066Z,28.30
2018-06-20T09:55:36.183Z,28.40
2018-06-20T09:58:05.256Z,28.40
2018-06-20T10:00:39.552Z,28.30
2018-06-20T10:03:14.036Z,28.30
2018-06-20T10:05:48.515Z,28.40
2018-06-20T10:08:22.814Z,28.40
2018-06-20T10:10:57.479Z,28.30
2018-06-20T10:13:27.260Z,28.50
2018-06-20T10:15:56.356Z,28.60
2018-06-20T10:18:25.455Z,28.40
2018-06-20T10:20:54.544Z,28.00
2018-06-20T10:23:23.670Z,27.90
2018-06-20T10:25:52.738Z,28.00
2018-06-20T10:28:21.874Z,28.00
2018-06-20T10:30:50.959Z,28.30
2018-06-20T10:33:20.061Z,28.50
2018-06-20T10:35:49.131Z,28.80
2018-06-20T10:38:18.220Z,28.70
2018-06-20T10:40:47.302Z,28.60
2018-06-20T10:43:16.512Z,28.80
2018-06-20T10:45:50.836Z,29.10
2018-06-20T10:48:19.956Z,29.30
2018-06-20T10:50:49.102Z,29.40
2018-06-20T10:55:47.371Z,29.20
2018-06-20T10:58:21.787Z,29.30
2018-06-20T11:00:56.234Z,29.20
2018-06-20T11:03:30.663Z,29.40
2018-06-20T11:06:05.081Z,29.60
2018-06-20T11:08:39.431Z,29.70
2018-06-20T11:11:13.751Z,29.60
2018-06-20T11:13:42.890Z,29.60
2018-06-20T11:16:11.999Z,29.80
2018-06-20T11:18:45.311Z,29.90
2018-06-20T11:21:14.459Z,30.00
2018-06-20T11:23:43.563Z,30.10
2018-06-20T11:26:12.783Z,30.10
2018-06-20T11:31:10.751Z,30.90
2018-06-20T11:33:39.865Z,30.80
2018-06-20T11:36:08.942Z,30.40
2018-06-20T11:38:38.076Z,29.90
2018-06-20T11:41:07.151Z,29.70
2018-06-20T11:43:36.266Z,29.40
2018-06-20T11:46:10.543Z,29.50
2018-06-20T11:48:39.659Z,30.20
2018-06-20T11:53:40.077Z,31.40
2018-06-20T11:56:09.203Z,31.40
2018-06-20T11:58:43.640Z,30.90
2018-06-20T12:01:18.022Z,30.70
2018-06-20T12:06:26.606Z,31.60
2018-06-20T12:09:00.970Z,31.80
2018-06-20T12:11:35.319Z,31.70
2018-06-20T12:14:09.722Z,31.80
2018-06-20T12:16:39.199Z,31.80
2018-06-20T12:19:13.795Z,31.80
2018-06-20T12:21:48.211Z,32.10
2018-06-20T12:24:22.654Z,32.20
2018-06-20T12:26:56.969Z,32.50
2018-06-20T12:29:31.559Z,32.30
2018-06-20T12:32:05.935Z,31.70
2018-06-20T12:34:40.247Z,31.40
2018-06-20T12:37:14.726Z,31.70
2018-06-20T12:39:43.143Z,32.00
2018-06-20T12:42:17.846Z,31.90
2018-06-20T12:44:52.086Z,32.30
2018-06-20T12:47:26.922Z,32.40
2018-06-20T12:50:00.370Z,32.40
2018-06-20T12:52:29.658Z,33.10
2018-06-20T12:54:58.752Z,33.10
2018-06-20T12:57:27.939Z,33.20
2018-06-20T12:59:57.027Z,33.10
2018-06-20T13:02:26.103Z,33.30
2018-06-20T13:04:55.211Z,32.40
2018-06-20T13:07:24.294Z,32.40
2018-06-20T13:09:53.566Z,32.40
2018-06-20T13:12:22.659Z,32.70
2018-06-20T13:14:51.754Z,33.40
2018-06-20T13:17:20.850Z,33.80
2018-06-20T13:19:49.998Z,34.30
2018-06-20T13:22:19.093Z,34.50
2018-06-20T13:24:48.192Z,34.90
2018-06-20T13:27:22.579Z,34.70
2018-06-20T13:30:23.411Z,34.50
2018-06-20T13:32:57.887Z,35.20
2018-06-20T13:36:35.285Z,35.30
2018-06-20T13:39:11.487Z,35.20
2018-06-20T13:41:46.532Z,35.40
2018-06-20T13:44:20.871Z,35.60
2018-06-20T13:46:55.237Z,35.40
2018-06-20T13:49:24.346Z,35.20
2018-06-20T13:51:53.501Z,35.50
2018-06-20T13:54:22.907Z,35.60
2018-06-20T13:56:52.539Z,35.70
2018-06-20T13:59:22.509Z,35.90
2018-06-20T14:01:51.639Z,36.30
2018-06-20T14:06:49.379Z,36.30
2018-06-20T14:09:18.523Z,35.70
2018-06-20T14:11:47.675Z,34.70
2018-06-20T14:14:16.780Z,34.30
2018-06-20T14:16:45.899Z,34.50
2018-06-20T14:19:14.964Z,34.90
2018-06-20T14:21:44.124Z,35.30
2018-06-20T14:24:13.224Z,35.70
2018-06-20T14:29:11.375Z,36.60
2018-06-20T14:31:45.804Z,36.60
2018-06-20T14:34:20.164Z,37.00
2018-06-20T14:37:54.251Z,37.20
2018-06-20T14:40:28.799Z,37.50
2018-06-20T14:43:02.827Z,37.40
2018-06-20T14:45:37.232Z,37.20
2018-06-20T14:48:06.302Z,37.00
2018-06-20T14:50:35.411Z,36.40
2018-06-20T14:53:05.876Z,36.20
2018-06-20T14:55:35.003Z,36.20
2018-06-20T15:00:34.283Z,36.80
2018-06-20T15:03:04.151Z,36.70
2018-06-20T15:05:33.243Z,36.50
2018-06-20T15:08:03.246Z,36.10
2018-06-20T15:10:32.411Z,36.30
2018-06-20T15:13:02.528Z,36.20
2018-06-20T15:15:31.636Z,36.50
2018-06-20T15:18:00.753Z,36.80
2018-06-20T15:20:30.045Z,37.20
2018-06-20T15:22:59.139Z,37.30
2018-06-20T15:25:32.252Z,37.60
2018-06-20T15:28:06.770Z,37.60
2018-06-20T15:30:41.168Z,37.70
2018-06-20T15:33:15.378Z,37.90
2018-06-20T15:35:49.752Z,38.10
2018-06-20T15:38:23.131Z,38.40
2018-06-20T15:40:52.350Z,37.90
2018-06-20T15:43:21.415Z,38.00
2018-06-20T15:45:50.583Z,38.40
2018-06-20T15:48:19.744Z,38.20
2018-06-20T15:50:48.839Z,38.10
2018-06-20T15:53:17.963Z,38.30
2018-06-20T15:55:47.127Z,38.70
2018-06-20T15:58:16.351Z,39.00
2018-06-20T16:00:45.443Z,38.90
2018-06-20T16:03:14.611Z,39.10
2018-06-20T16:05:43.703Z,39.50
2018-06-20T16:08:12.835Z,39.60
2018-06-20T16:10:41.960Z,39.40
2018-06-20T16:13:11.099Z,39.50
2018-06-20T16:15:40.726Z,39.60
2018-06-20T16:18:09.867Z,39.50
2018-06-20T16:20:44.135Z,39.50
2018-06-20T16:23:18.524Z,39.60
2018-06-20T16:25:52.747Z,39.40
2018-06-20T16:28:27.400Z,39.20
2018-06-20T16:30:56.678Z,38.90
2018-06-20T16:33:25.778Z,38.50
2018-06-20T16:35:54.911Z,38.30
2018-06-20T16:38:24.043Z,38.50
2018-06-20T16:40:53.126Z,38.70
2018-06-20T16:43:22.214Z,39.10
2018-06-20T16:45:51.310Z,38.90
2018-06-20T16:48:20.490Z,38.70
2018-06-20T16:50:49.587Z,38.10
2018-06-20T16:53:18.848Z,38.20
2018-06-20T16:55:49.789Z,38.00
2018-06-20T16:58:18.866Z,38.40
2018-06-20T17:00:47.973Z,38.60
2018-06-20T17:03:17.042Z,38.80
2018-06-20T17:05:54.010Z,38.40
2018-06-20T17:08:23.175Z,38.70
2018-06-20T17:10:52.262Z,39.20
2018-06-20T17:13:26.620Z,39.30
2018-06-20T17:16:01.544Z,39.40
2018-06-20T17:18:35.959Z,39.40
2018-06-20T17:21:10.303Z,39.00
2018-06-20T17:23:44.622Z,39.00
2018-06-20T17:26:13.873Z,38.80
2018-06-20T17:28:43.003Z,38.30
2018-06-20T17:33:40.790Z,38.20
2018-06-20T17:36:10.016Z,38.10
2018-06-20T17:38:39.142Z,37.80
2018-06-20T17:41:08.285Z,37.90
2018-06-20T17:43:37.416Z,37.40
2018-06-20T17:46:06.504Z,36.90
2018-06-20T17:48:35.636Z,36.50
2018-06-20T17:51:04.730Z,36.00
2018-06-20T17:53:34.079Z,36.00
2018-06-20T17:56:04.798Z,35.90
2018-06-20T17:58:34.342Z,35.30
2018-06-20T18:01:10.448Z,34.60
2018-06-20T18:03:40.387Z,34.00
2018-06-20T18:06:14.857Z,33.20
2018-06-20T18:08:49.342Z,32.90
2018-06-20T18:11:22.634Z,32.40
2018-06-20T18:13:57.071Z,32.00
2018-06-20T18:16:31.534Z,31.50
2018-06-20T18:21:29.329Z,30.60
2018-06-20T18:23:58.431Z,30.40
2018-06-20T18:26:27.598Z,30.40
2018-06-20T18:28:56.647Z,30.10
2018-06-20T18:31:25.842Z,30.00
2018-06-20T18:33:54.911Z,29.90
2018-06-20T18:36:24.154Z,29.70
2018-06-20T18:38:53.238Z,29.70
2018-06-20T18:41:22.471Z,29.60
2018-06-20T18:43:51.812Z,29.50
2018-06-20T18:46:20.998Z,29.50
2018-06-20T18:48:50.167Z,29.50
2018-06-20T18:51:19.248Z,29.40
2018-06-20T18:53:48.430Z,29.40
2018-06-20T18:56:17.617Z,29.20
2018-06-20T18:58:52.019Z,29.10
2018-06-20T19:01:26.350Z,29.00
2018-06-20T19:04:01.804Z,29.00
2018-06-20T19:06:36.221Z,29.00
2018-06-20T19:09:11.063Z,28.80
2018-06-20T19:11:40.349Z,28.70
2018-06-20T19:16:38.507Z,28.20
2018-06-20T19:19:07.628Z,28.00
2018-06-20T19:21:36.832Z,27.90
2018-06-20T19:24:05.999Z,27.80
2018-06-20T19:29:03.815Z,27.60
2018-06-20T19:34:01.590Z,27.40
2018-06-20T19:36:30.654Z,27.30
2018-06-20T19:38:59.844Z,27.10
2018-06-20T19:44:03.411Z,26.90
2018-06-20T19:46:33.175Z,26.90
2018-06-20T19:49:02.303Z,26.70
2018-06-20T19:51:31.490Z,26.70
2018-06-20T19:54:00.734Z,26.50
2018-06-20T19:58:58.484Z,26.30
2018-06-20T20:01:27.667Z,26.10
2018-06-20T20:03:56.762Z,26.20
2018-06-20T20:06:25.863Z,26.10
2018-06-20T20:08:55.071Z,26.00
2018-06-20T20:11:24.181Z,26.00
2018-06-20T20:13:53.361Z,25.90
2018-06-20T20:16:22.514Z,25.80
2018-06-20T20:18:51.626Z,25.80
2018-06-20T20:21:21.034Z,25.70
2018-06-20T20:23:51.519Z,25.50
2018-06-20T20:26:21.581Z,25.50
2018-06-20T20:28:51.452Z,25.40
2018-06-20T20:31:21.367Z,25.20
2018-06-20T20:33:56.291Z,25.20
2018-06-20T20:36:25.380Z,25.20
2018-06-20T20:38:55.411Z,25.00
2018-06-20T20:41:25.932Z,25.00
2018-06-20T20:43:59.146Z,25.00
2018-06-20T20:46:29.977Z,24.90
2018-06-20T20:48:59.091Z,24.70
2018-06-20T20:51:28.172Z,24.60
2018-06-20T20:53:57.282Z,24.60
2018-06-20T20:56:26.379Z,24.50
2018-06-20T20:58:59.300Z,24.40
2018-06-20T21:01:28.364Z,24.30
2018-06-20T21:03:57.587Z,24.30
2018-06-20T21:06:27.374Z,24.20
2018-06-20T21:08:56.634Z,24.10
2018-06-20T21:11:30.761Z,24.00
2018-06-20T21:14:02.083Z,23.90
2018-06-20T21:16:32.950Z,23.80
2018-06-20T21:19:03.010Z,23.80
2018-06-20T21:21:33.035Z,23.70
2018-06-20T21:26:31.931Z,23.50
2018-06-20T21:29:01.195Z,23.40
2018-06-20T21:31:30.415Z,23.40
2018-06-20T21:36:28.382Z,23.30
2018-06-20T21:38:57.595Z,23.20
2018-06-20T21:41:27.067Z,23.20
2018-06-20T21:43:56.306Z,23.00
2018-06-20T21:46:26.543Z,22.90
2018-06-20T21:48:55.843Z,22.90
2018-06-20T21:51:25.015Z,22.80
2018-06-20T21:53:54.163Z,22.70
2018-06-20T21:56:23.249Z,22.70
2018-06-20T21:58:52.347Z,22.70
2018-06-20T22:01:21.449Z,22.50
2018-06-20T22:03:50.619Z,22.50
2018-06-20T22:06:19.732Z,22.50
2018-06-20T22:08:48.897Z,22.30
2018-06-20T22:11:17.968Z,22.30
2018-06-20T22:13:47.100Z,22.20
2018-06-20T22:16:16.253Z,22.20
2018-06-20T22:18:45.365Z,22.10
2018-06-20T22:21:14.511Z,22.00
2018-06-20T22:23:43.607Z,22.00
2018-06-20T22:26:12.864Z,22.00
2018-06-20T22:28:41.972Z,22.00
2018-06-20T22:31:11.098Z,21.90
2018-06-20T22:33:40.292Z,21.80
2018-06-20T22:36:09.420Z,21.70
2018-06-20T22:38:38.608Z,21.60
2018-06-20T22:41:07.737Z,21.50
2018-06-20T22:43:36.959Z,21.50
2018-06-20T22:46:06.235Z,21.50
2018-06-20T22:48:35.413Z,21.50
2018-06-20T22:51:04.517Z,21.40
2018-06-20T22:53:33.624Z,21.30
2018-06-20T22:56:02.702Z,21.20
2018-06-20T22:58:31.816Z,21.20
2018-06-20T23:01:00.892Z,21.20
2018-06-20T23:03:30.006Z,21.10
2018-06-20T23:05:59.147Z,21.00
2018-06-20T23:08:28.231Z,20.80
2018-06-20T23:10:57.338Z,20.70
2018-06-20T23:13:26.423Z,20.70
2018-06-20T23:15:56.715Z,20.70
2018-06-20T23:18:25.812Z,20.70
2018-06-20T23:20:54.911Z,20.60
2018-06-20T23:23:24.033Z,20.60
2018-06-20T23:25:53.127Z,20.60
2018-06-20T23:28:22.234Z,20.60
2018-06-20T23:30:51.328Z,20.50
2018-06-20T23:33:20.395Z,20.50
2018-06-20T23:35:49.491Z,20.40
2018-06-20T23:38:18.566Z,20.50
2018-06-20T23:40:47.696Z,20.40
2018-06-20T23:43:16.783Z,20.40
2018-06-20T23:45:45.923Z,20.30
2018-06-20T23:48:15.007Z,20.20
2018-06-20T23:50:44.227Z,20.20
2018-06-20T23:53:13.322Z,20.20
2018-06-20T23:55:42.440Z,20.10
2018-06-20T23:58:11.624Z,20.10
